createdAt,value
2018-09-02T00:00:24.447Z,726.01
2018-09-02T00:01:24.919Z,726.00
2018-09-02T00:02:25.391Z,726.04
2018-09-02T00:03:25.918Z,725.96
2018-09-02T00:04:26.334Z,725.98
2018-09-02T00:05:26.806Z,726.01
2018-09-02T00:06:27.282Z,725.96
2018-09-02T00:07:27.751Z,726.02
2018-09-02T00:08:28.222Z,725.95
2018-09-02T00:09:28.694Z,725.93
2018-09-02T00:10:29.170Z,725.94
2018-09-02T00:11:29.641Z,725.95
2018-09-02T00:12:30.114Z,725.88
2018-09-02T00:13:30.586Z,725.99
2018-09-02T00:14:31.057Z,725.94
2018-09-02T00:15:31.535Z,725.96
2018-09-02T00:16:32.005Z,725.93
2018-09-02T00:17:32.478Z,725.96
2018-09-02T00:18:32.951Z,725.99
2018-09-02T00:19:33.425Z,725.94
2018-09-02T00:20:33.982Z,725.94
2018-09-02T00:21:34.371Z,725.94
2018-09-02T00:22:34.847Z,725.89
2018-09-02T00:23:35.317Z,725.91
2018-09-02T00:24:35.792Z,725.97
2018-09-02T00:25:36.265Z,725.94
2018-09-02T00:26:36.738Z,725.92
2018-09-02T00:27:37.212Z,725.93
2018-09-02T00:28:37.684Z,725.93
2018-09-02T00:29:38.158Z,725.90
2018-09-02T00:30:38.629Z,725.88
2018-09-02T00:31:39.107Z,725.87
2018-09-02T00:32:39.581Z,725.89
2018-09-02T00:33:40.093Z,725.92
2018-09-02T00:34:40.520Z,725.92
2018-09-02T00:35:40.999Z,725.85
2018-09-02T00:36:41.464Z,725.88
2018-09-02T00:37:41.954Z,725.91
2018-09-02T00:38:42.409Z,725.82
2018-09-02T00:39:42.880Z,725.83
2018-09-02T00:40:43.382Z,725.83
2018-09-02T00:41:43.822Z,725.88
2018-09-02T00:42:44.295Z,725.78
2018-09-02T00:43:44.764Z,725.81
2018-09-02T00:44:45.235Z,725.77
2018-09-02T00:45:45.704Z,725.82
2018-09-02T00:46:46.177Z,725.82
2018-09-02T00:47:46.644Z,725.76
2018-09-02T00:48:47.113Z,725.71
2018-09-02T00:49:47.584Z,725.79
2018-09-02T00:50:48.056Z,725.74
2018-09-02T00:51:48.524Z,725.68
2018-09-02T00:52:48.993Z,725.67
2018-09-02T00:53:49.462Z,725.69
2018-09-02T00:54:49.937Z,725.69
2018-09-02T00:55:50.402Z,725.74
2018-09-02T00:56:50.873Z,725.75
2018-09-02T00:57:51.341Z,725.75
2018-09-02T00:58:51.811Z,725.72
2018-09-02T00:59:52.281Z,725.79
2018-09-02T01:00:52.749Z,725.78
2018-09-02T01:01:53.222Z,725.77
2018-09-02T01:02:53.690Z,725.81
2018-09-02T01:03:54.162Z,725.80
2018-09-02T01:04:54.630Z,725.78
2018-09-02T01:05:55.098Z,725.73
2018-09-02T01:06:55.571Z,725.71
2018-09-02T01:07:56.041Z,725.78
2018-09-02T01:08:56.561Z,725.73
2018-09-02T01:09:56.981Z,725.71
2018-09-02T01:10:57.455Z,725.75
2018-09-02T01:11:57.924Z,725.75
2018-09-02T01:12:58.394Z,725.78
2018-09-02T01:13:58.908Z,725.71
2018-09-02T01:14:59.334Z,725.72
2018-09-02T01:15:59.804Z,725.77
2018-09-02T01:17:00.283Z,725.79
2018-09-02T01:18:00.745Z,725.76
2018-09-02T01:19:01.217Z,725.76
2018-09-02T01:20:01.688Z,725.77
2018-09-02T01:21:02.159Z,725.74
2018-09-02T01:22:02.631Z,725.75
2018-09-02T01:23:03.159Z,725.76
2018-09-02T01:24:03.575Z,725.74
2018-09-02T01:25:04.046Z,725.74
2018-09-02T01:26:04.517Z,725.75
2018-09-02T01:27:04.991Z,725.76
2018-09-02T01:28:05.463Z,725.68
2018-09-02T01:29:05.932Z,725.67
2018-09-02T01:30:06.407Z,725.72
2018-09-02T01:31:06.878Z,725.67
2018-09-02T01:32:07.358Z,725.62
2018-09-02T01:33:07.821Z,725.59
2018-09-02T01:34:08.296Z,725.63
2018-09-02T01:35:08.769Z,725.62
2018-09-02T01:36:09.241Z,725.66
2018-09-02T01:37:09.714Z,725.59
2018-09-02T01:38:10.185Z,725.66
2018-09-02T01:39:10.660Z,725.61
2018-09-02T01:40:11.132Z,725.59
2018-09-02T01:41:11.606Z,725.61
2018-09-02T01:42:12.077Z,725.64
2018-09-02T01:43:12.550Z,725.57
2018-09-02T01:44:13.076Z,725.63
2018-09-02T01:45:13.498Z,725.63
2018-09-02T01:46:13.970Z,725.62
2018-09-02T01:47:14.445Z,725.57
2018-09-02T01:48:14.919Z,725.59
2018-09-02T01:49:15.390Z,725.58
2018-09-02T01:50:15.865Z,725.55
2018-09-02T01:51:16.341Z,725.51
2018-09-02T01:52:16.811Z,725.42
2018-09-02T01:53:17.284Z,725.48
2018-09-02T01:54:17.757Z,725.49
2018-09-02T01:55:18.228Z,725.49
2018-09-02T01:56:18.703Z,725.44
2018-09-02T01:57:19.174Z,725.44
2018-09-02T01:58:19.646Z,725.51
2018-09-02T01:59:20.118Z,725.43
2018-09-02T02:00:20.590Z,725.39
2018-09-02T02:01:21.061Z,725.45
2018-09-02T02:02:21.533Z,725.46
2018-09-02T02:03:22.007Z,725.35
2018-09-02T02:04:22.476Z,725.30
2018-09-02T02:05:22.947Z,725.37
2018-09-02T02:06:23.420Z,725.37
2018-09-02T02:07:23.888Z,725.41
2018-09-02T02:08:24.358Z,725.33
2018-09-02T02:09:24.829Z,725.36
2018-09-02T02:10:25.298Z,725.26
2018-09-02T02:11:25.768Z,725.30
2018-09-02T02:12:26.239Z,725.27
2018-09-02T02:13:26.709Z,725.27
2018-09-02T02:14:27.178Z,725.33
2018-09-02T02:15:27.645Z,725.25
2018-09-02T02:16:28.115Z,725.31
2018-09-02T02:17:28.584Z,725.30
2018-09-02T02:18:29.054Z,725.31
2018-09-02T02:19:29.575Z,725.33
2018-09-02T02:20:29.993Z,725.30
2018-09-02T02:21:30.461Z,725.37
2018-09-02T02:22:30.931Z,725.37
2018-09-02T02:23:31.401Z,725.39
2018-09-02T02:24:31.883Z,725.36
2018-09-02T02:25:32.341Z,725.40
2018-09-02T02:26:32.809Z,725.38
2018-09-02T02:27:33.278Z,725.36
2018-09-02T02:28:33.749Z,725.41
2018-09-02T02:29:34.269Z,725.43
2018-09-02T02:30:34.689Z,725.39
2018-09-02T02:31:35.159Z,725.42
2018-09-02T02:32:35.628Z,725.33
2018-09-02T02:33:36.099Z,725.38
2018-09-02T02:34:36.567Z,725.35
2018-09-02T02:35:37.042Z,725.32
2018-09-02T02:36:37.509Z,725.39
2018-09-02T02:37:37.979Z,725.35
2018-09-02T02:38:38.449Z,725.36
2018-09-02T02:39:38.923Z,725.36
2018-09-02T02:40:39.393Z,725.38
2018-09-02T02:41:39.861Z,725.37
2018-09-02T02:42:40.333Z,725.35
2018-09-02T02:43:40.803Z,725.32
2018-09-02T02:44:41.326Z,725.35
2018-09-02T02:45:41.750Z,725.29
2018-09-02T02:46:42.218Z,725.33
2018-09-02T02:47:42.688Z,725.30
2018-09-02T02:48:43.163Z,725.29
2018-09-02T02:49:43.633Z,725.34
2018-09-02T02:50:44.104Z,725.28
2018-09-02T02:51:44.573Z,725.30
2018-09-02T02:52:45.046Z,725.26
2018-09-02T02:53:45.518Z,725.28
2018-09-02T02:54:45.989Z,725.28
2018-09-02T02:55:46.464Z,725.24
2018-09-02T02:56:46.938Z,725.28
2018-09-02T02:57:47.409Z,725.30
2018-09-02T02:58:47.878Z,725.21
2018-09-02T02:59:48.351Z,725.22
2018-09-02T03:00:48.823Z,725.27
2018-09-02T03:01:49.295Z,725.26
2018-09-02T03:02:49.769Z,725.17
2018-09-02T03:03:50.241Z,725.19
2018-09-02T03:04:50.715Z,725.17
2018-09-02T03:05:51.185Z,725.17
2018-09-02T03:06:51.658Z,725.18
2018-09-02T03:07:52.191Z,725.12
2018-09-02T03:08:52.606Z,725.19
2018-09-02T03:09:53.078Z,725.13
2018-09-02T03:10:53.633Z,725.20
2018-09-02T03:11:54.024Z,725.10
2018-09-02T03:12:54.496Z,725.19
2018-09-02T03:13:54.970Z,725.15
2018-09-02T03:14:55.443Z,725.13
2018-09-02T03:15:55.918Z,725.15
2018-09-02T03:16:56.389Z,725.08
2018-09-02T03:17:56.862Z,725.13
2018-09-02T03:18:57.334Z,725.09
2018-09-02T03:19:57.807Z,725.14
2018-09-02T03:20:58.281Z,725.11
2018-09-02T03:21:58.804Z,725.15
2018-09-02T03:22:59.227Z,725.15
2018-09-02T03:23:59.699Z,725.14
2018-09-02T03:25:00.174Z,725.04
2018-09-02T03:26:00.644Z,725.09
2018-09-02T03:27:01.116Z,725.09
2018-09-02T03:28:01.590Z,725.10
2018-09-02T03:29:02.061Z,725.06
2018-09-02T03:30:02.580Z,725.10
2018-09-02T03:31:03.001Z,725.07
2018-09-02T03:32:03.476Z,725.07
2018-09-02T03:33:03.944Z,725.05
2018-09-02T03:34:04.413Z,725.04
2018-09-02T03:35:04.921Z,725.08
2018-09-02T03:36:05.356Z,725.03
2018-09-02T03:37:05.825Z,725.07
2018-09-02T03:38:06.302Z,725.04
2018-09-02T03:39:06.766Z,725.02
2018-09-02T03:40:07.236Z,725.02
2018-09-02T03:41:07.706Z,725.06
2018-09-02T03:42:08.172Z,724.97
2018-09-02T03:43:08.645Z,724.97
2018-09-02T03:44:09.113Z,724.98
2018-09-02T03:45:09.784Z,724.95
2018-09-02T03:46:10.051Z,724.98
2018-09-02T03:47:10.521Z,724.95
2018-09-02T03:48:10.990Z,724.98
2018-09-02T03:49:11.461Z,724.96
2018-09-02T03:50:11.929Z,724.99
2018-09-02T03:51:12.398Z,724.97
2018-09-02T03:52:12.869Z,724.96
2018-09-02T03:53:13.337Z,724.96
2018-09-02T03:54:13.810Z,724.87
2018-09-02T03:55:14.277Z,724.89
2018-09-02T03:56:14.746Z,724.88
2018-09-02T03:57:15.218Z,724.88
2018-09-02T03:58:15.688Z,724.92
2018-09-02T03:59:16.162Z,724.88
2018-09-02T04:00:16.626Z,724.90
2018-09-02T04:01:17.100Z,724.96
2018-09-02T04:02:17.568Z,724.83
2018-09-02T04:03:18.036Z,724.81
2018-09-02T04:04:18.507Z,724.86
2018-09-02T04:05:18.977Z,724.81
2018-09-02T04:06:19.446Z,724.87
2018-09-02T04:07:19.916Z,724.93
2018-09-02T04:08:20.389Z,724.91
2018-09-02T04:09:20.857Z,724.84
2018-09-02T04:10:21.329Z,724.88
2018-09-02T04:11:21.849Z,724.88
2018-09-02T04:12:22.273Z,724.83
2018-09-02T04:13:22.741Z,724.90
2018-09-02T04:14:23.215Z,724.87
2018-09-02T04:15:23.686Z,724.95
2018-09-02T04:16:24.157Z,724.86
2018-09-02T04:17:24.627Z,724.87
2018-09-02T04:18:25.100Z,724.86
2018-09-02T04:19:25.570Z,724.83
2018-09-02T04:20:26.042Z,724.86
2018-09-02T04:21:26.513Z,724.85
2018-09-02T04:22:26.987Z,724.82
2018-09-02T04:23:27.459Z,724.86
2018-09-02T04:24:27.929Z,724.79
2018-09-02T04:25:28.405Z,724.76
2018-09-02T04:26:28.873Z,724.76
2018-09-02T04:27:29.347Z,724.82
2018-09-02T04:28:29.820Z,724.84
2018-09-02T04:29:30.294Z,724.78
2018-09-02T04:30:30.761Z,724.83
2018-09-02T04:31:31.236Z,724.89
2018-09-02T04:32:31.709Z,724.78
2018-09-02T04:33:32.184Z,724.82
2018-09-02T04:34:32.656Z,724.82
2018-09-02T04:35:33.127Z,724.83
2018-09-02T04:36:33.600Z,724.79
2018-09-02T04:37:34.074Z,724.87
2018-09-02T04:38:34.547Z,724.81
2018-09-02T04:39:35.019Z,724.82
2018-09-02T04:40:35.492Z,724.76
2018-09-02T04:41:35.966Z,724.83
2018-09-02T04:42:36.438Z,724.83
2018-09-02T04:43:36.911Z,724.87
2018-09-02T04:44:37.385Z,724.81
2018-09-02T04:45:37.862Z,724.85
2018-09-02T04:46:38.329Z,724.87
2018-09-02T04:47:38.806Z,724.88
2018-09-02T04:48:39.280Z,724.85
2018-09-02T04:49:39.750Z,724.84
2018-09-02T04:50:40.222Z,724.79
2018-09-02T04:51:40.693Z,724.77
2018-09-02T04:52:41.175Z,724.81
2018-09-02T04:53:41.641Z,724.86
2018-09-02T04:54:42.111Z,724.80
2018-09-02T04:55:42.585Z,724.81
2018-09-02T04:56:43.058Z,724.77
2018-09-02T04:57:43.528Z,724.78
2018-09-02T04:58:44.000Z,724.86
2018-09-02T04:59:44.497Z,724.76
2018-09-02T05:00:44.939Z,724.80
2018-09-02T05:01:45.412Z,724.79
2018-09-02T05:02:45.880Z,724.81
2018-09-02T05:03:46.353Z,724.75
2018-09-02T05:04:46.823Z,724.73
2018-09-02T05:05:47.294Z,724.73
2018-09-02T05:06:47.964Z,724.74
2018-09-02T05:07:48.233Z,724.73
2018-09-02T05:08:48.704Z,724.74
2018-09-02T05:09:49.173Z,724.70
2018-09-02T05:10:49.641Z,724.76
2018-09-02T05:11:50.111Z,724.71
2018-09-02T05:12:50.583Z,724.78
2018-09-02T05:13:51.051Z,724.81
2018-09-02T05:14:51.518Z,724.78
2018-09-02T05:15:52.040Z,724.87
2018-09-02T05:16:52.457Z,724.83
2018-09-02T05:17:52.928Z,724.73
2018-09-02T05:18:53.400Z,724.80
2018-09-02T05:19:53.867Z,724.80
2018-09-02T05:20:54.388Z,724.77
2018-09-02T05:21:54.805Z,724.73
2018-09-02T05:22:55.274Z,724.69
2018-09-02T05:23:55.748Z,724.76
2018-09-02T05:24:56.217Z,724.68
2018-09-02T05:25:56.686Z,724.72
2018-09-02T05:26:57.156Z,724.77
2018-09-02T05:27:57.625Z,724.73
2018-09-02T05:28:58.097Z,724.72
2018-09-02T05:29:58.567Z,724.70
2018-09-02T05:30:59.036Z,724.75
2018-09-02T05:31:59.508Z,724.74
2018-09-02T05:32:59.978Z,724.79
2018-09-02T05:34:00.448Z,724.76
2018-09-02T05:35:00.920Z,724.76
2018-09-02T05:36:01.391Z,724.70
2018-09-02T05:37:01.900Z,724.73
2018-09-02T05:38:02.331Z,724.78
2018-09-02T05:39:02.803Z,724.74
2018-09-02T05:40:03.275Z,724.73
2018-09-02T05:41:03.746Z,724.81
2018-09-02T05:42:04.219Z,724.78
2018-09-02T05:43:04.687Z,724.75
2018-09-02T05:44:05.235Z,724.76
2018-09-02T05:45:05.632Z,724.70
2018-09-02T05:46:06.105Z,724.78
2018-09-02T05:47:06.575Z,724.77
2018-09-02T05:48:07.046Z,724.77
2018-09-02T05:49:07.518Z,724.75
2018-09-02T05:50:07.990Z,724.78
2018-09-02T05:51:08.463Z,724.81
2018-09-02T05:52:08.935Z,724.77
2018-09-02T05:53:09.409Z,724.76
2018-09-02T05:54:09.880Z,724.78
2018-09-02T05:55:10.352Z,724.75
2018-09-02T05:56:10.876Z,724.79
2018-09-02T05:57:11.301Z,724.76
2018-09-02T05:58:11.770Z,724.79
2018-09-02T05:59:12.243Z,724.84
2018-09-02T06:00:12.721Z,724.79
2018-09-02T06:01:13.188Z,724.74
2018-09-02T06:02:13.662Z,724.77
2018-09-02T06:03:14.137Z,724.77
2018-09-02T06:04:14.607Z,724.79
2018-09-02T06:05:15.082Z,724.75
2018-09-02T06:06:15.556Z,724.76
2018-09-02T06:07:16.026Z,724.74
2018-09-02T06:08:16.504Z,724.78
2018-09-02T06:09:16.975Z,724.74
2018-09-02T06:10:17.448Z,724.72
2018-09-02T06:11:17.969Z,724.72
2018-09-02T06:12:18.394Z,724.71
2018-09-02T06:13:18.868Z,724.75
2018-09-02T06:14:19.341Z,724.75
2018-09-02T06:15:19.813Z,724.78
2018-09-02T06:16:20.288Z,724.78
2018-09-02T06:17:20.811Z,724.83
2018-09-02T06:18:21.233Z,724.78
2018-09-02T06:19:21.706Z,724.84
2018-09-02T06:20:22.178Z,724.81
2018-09-02T06:21:22.852Z,724.78
2018-09-02T06:22:23.123Z,724.75
2018-09-02T06:23:23.592Z,724.77
2018-09-02T06:24:24.071Z,724.75
2018-09-02T06:25:24.537Z,724.73
2018-09-02T06:26:25.008Z,724.82
2018-09-02T06:27:25.480Z,724.83
2018-09-02T06:28:25.949Z,724.82
2018-09-02T06:29:26.424Z,724.82
2018-09-02T06:30:26.891Z,724.75
2018-09-02T06:31:27.361Z,724.77
2018-09-02T06:32:27.835Z,724.83
2018-09-02T06:33:28.305Z,724.77
2018-09-02T06:34:28.773Z,724.83
2018-09-02T06:35:29.301Z,724.77
2018-09-02T06:36:29.712Z,724.74
2018-09-02T06:37:30.181Z,724.76
2018-09-02T06:38:30.651Z,724.74
2018-09-02T06:39:31.171Z,724.77
2018-09-02T06:40:31.588Z,724.81
2018-09-02T06:41:32.061Z,724.82
2018-09-02T06:42:32.529Z,724.82
2018-09-02T06:43:33.079Z,724.79
2018-09-02T06:44:33.470Z,724.79
2018-09-02T06:45:33.949Z,724.78
2018-09-02T06:46:34.408Z,724.74
2018-09-02T06:47:34.877Z,724.72
2018-09-02T06:48:35.346Z,724.73
2018-09-02T06:49:35.815Z,724.75
2018-09-02T06:50:36.287Z,724.72
2018-09-02T06:51:36.757Z,724.75
2018-09-02T06:52:37.227Z,724.72
2018-09-02T06:53:37.697Z,724.81
2018-09-02T06:54:38.168Z,724.74
2018-09-02T06:55:38.637Z,724.72
2018-09-02T06:56:39.107Z,724.75
2018-09-02T06:57:39.577Z,724.74
2018-09-02T06:58:40.094Z,724.73
2018-09-02T06:59:40.521Z,724.75
2018-09-02T07:00:40.995Z,724.69
2018-09-02T07:01:41.462Z,724.75
2018-09-02T07:02:41.932Z,724.78
2018-09-02T07:03:42.409Z,724.76
2018-09-02T07:04:42.872Z,724.73
2018-09-02T07:05:43.365Z,724.80
2018-09-02T07:06:43.867Z,724.74
2018-09-02T07:07:44.287Z,724.74
2018-09-02T07:08:44.757Z,724.73
2018-09-02T07:09:45.231Z,724.78
2018-09-02T07:10:45.701Z,724.81
2018-09-02T07:11:46.175Z,724.80
2018-09-02T07:12:46.643Z,724.76
2018-09-02T07:13:47.117Z,724.77
2018-09-02T07:14:47.592Z,724.74
2018-09-02T07:15:48.060Z,724.73
2018-09-02T07:16:48.532Z,724.77
2018-09-02T07:17:49.003Z,724.78
2018-09-02T07:18:49.478Z,724.76
2018-09-02T07:19:49.949Z,724.77
2018-09-02T07:20:50.422Z,724.77
2018-09-02T07:21:50.894Z,724.78
2018-09-02T07:22:51.366Z,724.86
2018-09-02T07:23:51.841Z,724.82
2018-09-02T07:24:52.310Z,724.81
2018-09-02T07:25:52.785Z,724.91
2018-09-02T07:26:53.260Z,724.86
2018-09-02T07:27:53.733Z,724.82
2018-09-02T07:28:54.204Z,724.87
2018-09-02T07:29:54.676Z,724.85
2018-09-02T07:30:55.150Z,724.81
2018-09-02T07:31:55.672Z,724.88
2018-09-02T07:32:56.096Z,724.83
2018-09-02T07:33:56.569Z,724.85
2018-09-02T07:34:57.043Z,724.87
2018-09-02T07:35:57.516Z,724.90
2018-09-02T07:36:57.991Z,724.87
2018-09-02T07:37:58.462Z,724.90
2018-09-02T07:38:58.935Z,724.88
2018-09-02T07:39:59.408Z,724.90
2018-09-02T07:40:59.881Z,724.88
2018-09-02T07:42:00.353Z,724.87
2018-09-02T07:43:00.828Z,724.92
2018-09-02T07:44:01.343Z,724.94
2018-09-02T07:45:01.775Z,724.91
2018-09-02T07:46:02.244Z,724.88
2018-09-02T07:47:02.716Z,724.89
2018-09-02T07:48:03.191Z,724.97
2018-09-02T07:49:03.658Z,724.86
2018-09-02T07:50:04.131Z,724.98
2018-09-02T07:51:04.603Z,724.91
2018-09-02T07:52:05.071Z,724.93
2018-09-02T07:53:05.542Z,724.98
2018-09-02T07:54:06.015Z,724.89
2018-09-02T07:55:06.486Z,724.90
2018-09-02T07:56:06.956Z,724.91
2018-09-02T07:57:07.424Z,724.86
2018-09-02T07:58:07.895Z,724.94
2018-09-02T07:59:08.369Z,724.96
2018-09-02T08:00:08.834Z,724.94
2018-09-02T08:01:09.304Z,724.94
2018-09-02T08:02:09.775Z,724.92
2018-09-02T08:03:10.245Z,725.00
2018-09-02T08:04:10.713Z,724.86
2018-09-02T08:05:11.183Z,724.88
2018-09-02T08:06:11.653Z,724.86
2018-09-02T08:07:12.124Z,724.92
2018-09-02T08:08:12.593Z,724.88
2018-09-02T08:09:13.060Z,724.89
2018-09-02T08:10:13.536Z,724.87
2018-09-02T08:11:14.003Z,724.90
2018-09-02T08:12:14.485Z,724.94
2018-09-02T08:13:14.943Z,724.97
2018-09-02T08:14:15.414Z,724.95
2018-09-02T08:15:15.883Z,724.91
2018-09-02T08:16:16.355Z,724.96
2018-09-02T08:17:16.823Z,724.95
2018-09-02T08:18:17.292Z,724.95
2018-09-02T08:19:17.770Z,724.93
2018-09-02T08:20:18.233Z,724.87
2018-09-02T08:21:18.705Z,724.94
2018-09-02T08:22:19.175Z,724.92
2018-09-02T08:23:19.649Z,724.95
2018-09-02T08:24:20.116Z,724.97
2018-09-02T08:25:20.588Z,724.95
2018-09-02T08:26:21.058Z,724.96
2018-09-02T08:27:21.532Z,724.96
2018-09-02T08:28:22.003Z,725.01
2018-09-02T08:29:22.474Z,724.98
2018-09-02T08:30:22.947Z,724.97
2018-09-02T08:31:23.417Z,724.93
2018-09-02T08:32:23.990Z,724.93
2018-09-02T08:33:24.362Z,724.94
2018-09-02T08:34:24.835Z,725.01
2018-09-02T08:35:25.307Z,724.96
2018-09-02T08:36:25.777Z,724.95
2018-09-02T08:37:26.250Z,724.97
2018-09-02T08:38:26.722Z,725.01
2018-09-02T08:39:27.194Z,724.96
2018-09-02T08:40:27.667Z,724.99
2018-09-02T08:41:28.145Z,724.96
2018-09-02T08:42:28.619Z,725.01
2018-09-02T08:43:29.089Z,724.99
2018-09-02T08:44:29.560Z,724.98
2018-09-02T08:45:30.033Z,724.92
2018-09-02T08:46:30.507Z,724.93
2018-09-02T08:47:30.980Z,724.92
2018-09-02T08:48:31.457Z,724.85
2018-09-02T08:49:31.926Z,724.92
2018-09-02T08:50:32.415Z,724.91
2018-09-02T08:51:32.876Z,724.88
2018-09-02T08:52:33.349Z,724.99
2018-09-02T08:53:33.821Z,724.98
2018-09-02T08:54:34.295Z,724.92
2018-09-02T08:55:34.769Z,725.00
2018-09-02T08:56:35.241Z,724.96
2018-09-02T08:57:35.715Z,724.93
2018-09-02T08:58:36.189Z,724.99
2018-09-02T08:59:36.665Z,724.99
2018-09-02T09:00:37.137Z,725.00
2018-09-02T09:01:37.663Z,725.03
2018-09-02T09:02:38.083Z,725.09
2018-09-02T09:03:38.554Z,724.97
2018-09-02T09:04:39.025Z,725.07
2018-09-02T09:05:39.500Z,725.01
2018-09-02T09:06:39.974Z,725.01
2018-09-02T09:07:40.639Z,724.95
2018-09-02T09:08:41.034Z,724.92
2018-09-02T09:09:41.387Z,724.93
2018-09-02T09:10:41.864Z,724.99
2018-09-02T09:11:42.337Z,724.97
2018-09-02T09:12:42.805Z,724.90
2018-09-02T09:13:43.275Z,724.94
2018-09-02T09:14:43.743Z,724.98
2018-09-02T09:15:44.213Z,724.98
2018-09-02T09:16:44.782Z,724.97
2018-09-02T09:17:45.156Z,724.99
2018-09-02T09:18:45.625Z,724.99
2018-09-02T09:19:46.096Z,724.96
2018-09-02T09:20:46.566Z,724.94
2018-09-02T09:21:47.040Z,724.98
2018-09-02T09:22:47.539Z,724.95
2018-09-02T09:23:47.977Z,725.01
2018-09-02T09:24:48.448Z,725.00
2018-09-02T09:25:48.917Z,724.98
2018-09-02T09:26:49.390Z,725.01
2018-09-02T09:27:49.858Z,725.00
2018-09-02T09:28:50.330Z,724.94
2018-09-02T09:29:50.799Z,725.03
2018-09-02T09:30:51.268Z,725.01
2018-09-02T09:31:51.744Z,724.89
2018-09-02T09:32:52.210Z,725.10
2018-09-02T09:33:52.681Z,725.02
2018-09-02T09:34:53.153Z,725.12
2018-09-02T09:35:53.624Z,725.05
2018-09-02T09:36:54.093Z,725.11
2018-09-02T09:37:54.568Z,725.07
2018-09-02T09:38:55.038Z,725.06
2018-09-02T09:39:55.509Z,725.09
2018-09-02T09:40:55.979Z,725.02
2018-09-02T09:41:56.451Z,725.02
2018-09-02T09:42:56.927Z,724.97
2018-09-02T09:43:57.397Z,725.02
2018-09-02T09:44:57.873Z,725.00
2018-09-02T09:45:58.373Z,725.04
2018-09-02T09:46:58.812Z,725.04
2018-09-02T09:47:59.287Z,724.88
2018-09-02T09:48:59.758Z,725.01
2018-09-02T09:50:00.230Z,725.02
2018-09-02T09:51:00.703Z,725.03
2018-09-02T09:52:01.180Z,725.03
2018-09-02T09:53:01.651Z,725.10
2018-09-02T09:54:02.123Z,725.07
2018-09-02T09:55:02.597Z,725.00
2018-09-02T09:56:03.072Z,725.02
2018-09-02T09:57:03.548Z,725.02
2018-09-02T09:58:04.020Z,724.99
2018-09-02T09:59:04.493Z,725.03
2018-09-02T10:00:04.968Z,725.02
2018-09-02T10:01:05.440Z,725.03
2018-09-02T10:02:05.916Z,724.99
2018-09-02T10:03:06.388Z,724.97
2018-09-02T10:04:06.864Z,724.99
2018-09-02T10:05:07.339Z,724.96
2018-09-02T10:06:07.811Z,724.92
2018-09-02T10:07:08.287Z,724.99
2018-09-02T10:08:08.759Z,725.00
2018-09-02T10:09:09.233Z,724.93
2018-09-02T10:10:09.707Z,724.99
2018-09-02T10:11:10.179Z,724.97
2018-09-02T10:12:10.657Z,724.99
2018-09-02T10:13:11.186Z,725.02
2018-09-02T10:14:11.601Z,724.99
2018-09-02T10:15:12.073Z,724.93
2018-09-02T10:16:12.548Z,724.90
2018-09-02T10:17:13.044Z,724.94
2018-09-02T10:18:13.595Z,725.04
2018-09-02T10:19:13.964Z,724.93
2018-09-02T10:20:14.437Z,725.00
2018-09-02T10:21:14.910Z,724.93
2018-09-02T10:22:15.382Z,725.01
2018-09-02T10:23:15.854Z,724.88
2018-09-02T10:24:16.324Z,725.03
2018-09-02T10:25:16.797Z,725.00
2018-09-02T10:26:17.272Z,725.06
2018-09-02T10:27:17.761Z,724.81
2018-09-02T10:28:18.211Z,725.04
2018-09-02T10:29:18.680Z,725.04
2018-09-02T10:30:19.151Z,724.94
2018-09-02T10:31:19.624Z,724.91
2018-09-02T10:32:20.101Z,724.99
2018-09-02T10:33:20.575Z,725.01
2018-09-02T10:34:21.036Z,725.07
2018-09-02T10:35:21.505Z,725.01
2018-09-02T10:36:21.978Z,724.98
2018-09-02T10:37:22.446Z,725.02
2018-09-02T10:38:22.967Z,724.94
2018-09-02T10:39:23.388Z,724.97
2018-09-02T10:40:23.859Z,725.05
2018-09-02T10:41:24.415Z,725.01
2018-09-02T10:42:24.806Z,725.03
2018-09-02T10:43:25.273Z,725.03
2018-09-02T10:44:25.746Z,724.95
2018-09-02T10:45:26.215Z,724.91
2018-09-02T10:46:26.687Z,724.91
2018-09-02T10:47:27.168Z,724.91
2018-09-02T10:48:27.630Z,724.98
2018-09-02T10:49:28.105Z,724.94
2018-09-02T10:50:28.574Z,724.92
2018-09-02T10:51:29.047Z,724.92
2018-09-02T10:52:29.518Z,724.93
2018-09-02T10:53:29.990Z,724.96
2018-09-02T10:54:30.463Z,724.94
2018-09-02T10:55:30.937Z,724.87
2018-09-02T10:56:31.412Z,724.93
2018-09-02T10:57:31.884Z,724.81
2018-09-02T10:58:32.357Z,724.92
2018-09-02T10:59:33.039Z,724.97
2018-09-02T11:00:33.304Z,724.94
2018-09-02T11:01:33.777Z,724.96
2018-09-02T11:02:34.254Z,724.95
2018-09-02T11:03:34.726Z,724.92
2018-09-02T11:04:35.202Z,724.93
2018-09-02T11:05:35.677Z,725.00
2018-09-02T11:06:36.147Z,724.92
2018-09-02T11:07:36.643Z,724.93
2018-09-02T11:08:37.189Z,724.88
2018-09-02T11:09:37.573Z,724.91
2018-09-02T11:10:38.048Z,724.95
2018-09-02T11:11:38.524Z,724.91
2018-09-02T11:12:38.997Z,724.90
2018-09-02T11:13:39.622Z,724.93
2018-09-02T11:14:39.946Z,724.97
2018-09-02T11:15:40.420Z,724.95
2018-09-02T11:16:40.895Z,724.99
2018-09-02T11:17:41.368Z,724.98
2018-09-02T11:18:41.842Z,724.95
2018-09-02T11:19:42.320Z,724.92
2018-09-02T11:20:42.791Z,724.95
2018-09-02T11:21:43.263Z,724.98
2018-09-02T11:22:43.737Z,724.98
2018-09-02T11:23:44.289Z,724.99
2018-09-02T11:24:44.726Z,724.94
2018-09-02T11:25:45.155Z,724.98
2018-09-02T11:26:45.629Z,724.91
2018-09-02T11:27:46.103Z,724.96
2018-09-02T11:28:46.577Z,725.00
2018-09-02T11:29:47.262Z,724.98
2018-09-02T11:30:47.520Z,724.98
2018-09-02T11:31:47.994Z,724.98
2018-09-02T11:32:48.465Z,725.02
2018-09-02T11:33:48.988Z,725.03
2018-09-02T11:34:49.407Z,725.01
2018-09-02T11:35:49.884Z,725.00
2018-09-02T11:36:50.358Z,725.00
2018-09-02T11:37:50.826Z,724.96
2018-09-02T11:38:51.295Z,724.97
2018-09-02T11:39:51.767Z,724.98
2018-09-02T11:40:52.241Z,725.01
2018-09-02T11:41:52.713Z,725.00
2018-09-02T11:42:53.179Z,725.03
2018-09-02T11:43:53.651Z,724.95
2018-09-02T11:44:54.155Z,724.97
2018-09-02T11:45:54.590Z,725.00
2018-09-02T11:46:55.156Z,725.02
2018-09-02T11:47:55.533Z,724.94
2018-09-02T11:48:56.055Z,725.02
2018-09-02T11:49:56.473Z,725.01
2018-09-02T11:50:56.947Z,724.99
2018-09-02T11:51:57.418Z,725.02
2018-09-02T11:52:57.889Z,725.09
2018-09-02T11:53:58.359Z,725.09
2018-09-02T11:54:58.830Z,724.99
2018-09-02T11:55:59.303Z,725.02
2018-09-02T11:56:59.775Z,725.02
2018-09-02T11:58:00.251Z,725.07
2018-09-02T11:59:00.718Z,725.07
2018-09-02T12:00:01.190Z,725.05
2018-09-02T12:01:01.663Z,724.94
2018-09-02T12:02:02.133Z,724.99
2018-09-02T12:03:02.610Z,725.06
2018-09-02T12:04:03.163Z,725.07
2018-09-02T12:05:03.552Z,725.10
2018-09-02T12:06:04.026Z,725.06
2018-09-02T12:07:04.500Z,725.07
2018-09-02T12:08:04.972Z,725.09
2018-09-02T12:09:05.577Z,725.11
2018-09-02T12:10:05.921Z,725.08
2018-09-02T12:11:06.395Z,725.17
2018-09-02T12:12:06.872Z,725.13
2018-09-02T12:13:07.345Z,725.12
2018-09-02T12:14:07.869Z,724.92
2018-09-02T12:15:08.293Z,725.01
2018-09-02T12:16:08.768Z,725.12
2018-09-02T12:17:09.244Z,725.14
2018-09-02T12:18:09.721Z,725.11
2018-09-02T12:19:10.193Z,725.09
2018-09-02T12:20:10.667Z,725.04
2018-09-02T12:21:11.146Z,724.99
2018-09-02T12:22:11.615Z,725.04
2018-09-02T12:23:12.093Z,725.11
2018-09-02T12:24:12.567Z,725.03
2018-09-02T12:25:13.043Z,725.04
2018-09-02T12:26:13.536Z,725.04
2018-09-02T12:27:13.991Z,725.01
2018-09-02T12:28:14.466Z,725.02
2018-09-02T12:29:14.940Z,725.02
2018-09-02T12:30:15.414Z,725.01
2018-09-02T12:31:15.889Z,724.95
2018-09-02T12:32:16.365Z,725.01
2018-09-02T12:33:16.839Z,725.00
2018-09-02T12:34:17.311Z,724.96